sensor_id;sensor_type;location;lat;lon;timestamp;P1;durP1;ratioP1;P2;durP2;ratioP2
62848;SDS011;48941;49.516;8.286;2022-08-01T00:00:53;2.45;;;2.10;;
62848;SDS011;48941;49.516;8.286;2022-08-01T00:03:21;15.98;;;3.10;;
62848;SDS011;48941;49.516;8.286;2022-08-01T00:05:49;5.57;;;2.38;;
62848;SDS011;48941;49.516;8.286;2022-08-01T00:08:16;3.40;;;2.40;;
62848;SDS011;48941;49.516;8.286;2022-08-01T00:10:44;3.45;;;2.20;;
62848;SDS011;48941;49.516;8.286;2022-08-01T00:13:12;2.95;;;2.20;;
62848;SDS011;48941;49.516;8.286;2022-08-01T00:15:40;2.50;;;2.30;;
62848;SDS011;48941;49.516;8.286;2022-08-01T00:18:21;2.55;;;2.00;;
62848;SDS011;48941;49.516;8.286;2022-08-01T00:20:48;2.47;;;2.28;;
62848;SDS011;48941;49.516;8.286;2022-08-01T00:23:16;2.97;;;2.15;;
62848;SDS011;48941;49.516;8.286;2022-08-01T00:25:44;5.50;;;2.40;;
62848;SDS011;48941;49.516;8.286;2022-08-01T00:28:12;2.40;;;2.20;;
62848;SDS011;48941;49.516;8.286;2022-08-01T00:30:40;2.28;;;2.08;;
62848;SDS011;48941;49.516;8.286;2022-08-01T00:33:08;3.63;;;1.80;;
62848;SDS011;48941;49.516;8.286;2022-08-01T00:35:37;3.13;;;1.83;;
62848;SDS011;48941;49.516;8.286;2022-08-01T00:38:04;1.85;;;1.67;;
62848;SDS011;48941;49.516;8.286;2022-08-01T00:40:32;5.05;;;2.33;;
62848;SDS011;48941;49.516;8.286;2022-08-01T00:43:00;5.57;;;1.95;;
62848;SDS011;48941;49.516;8.286;2022-08-01T00:45:28;2.58;;;2.10;;
62848;SDS011;48941;49.516;8.286;2022-08-01T00:47:55;4.30;;;1.73;;
62848;SDS011;48941;49.516;8.286;2022-08-01T00:50:23;3.28;;;1.90;;
62848;SDS011;48941;49.516;8.286;2022-08-01T00:52:53;2.80;;;2.08;;
62848;SDS011;48941;49.516;8.286;2022-08-01T00:55:22;2.38;;;1.83;;
62848;SDS011;48941;49.516;8.286;2022-08-01T00:57:50;2.83;;;1.73;;
62848;SDS011;48941;49.516;8.286;2022-08-01T01:00:30;3.72;;;1.70;;
62848;SDS011;48941;49.516;8.286;2022-08-01T01:03:18;2.25;;;2.05;;
62848;SDS011;48941;49.516;8.286;2022-08-01T01:05:56;1.92;;;1.77;;
62848;SDS011;48941;49.516;8.286;2022-08-01T01:08:36;2.67;;;2.08;;
62848;SDS011;48941;49.516;8.286;2022-08-01T01:11:10;2.65;;;1.80;;
62848;SDS011;48941;49.516;8.286;2022-08-01T01:13:46;3.50;;;1.70;;
62848;SDS011;48941;49.516;8.286;2022-08-01T01:16:19;2.20;;;1.90;;
62848;SDS011;48941;49.516;8.286;2022-08-01T01:18:49;2.25;;;1.73;;
62848;SDS011;48941;49.516;8.286;2022-08-01T01:21:35;3.97;;;2.42;;
62848;SDS011;48941;49.516;8.286;2022-08-01T01:24:18;3.17;;;1.77;;
62848;SDS011;48941;49.516;8.286;2022-08-01T01:26:57;5.55;;;1.92;;
62848;SDS011;48941;49.516;8.286;2022-08-01T01:29:34;2.90;;;1.63;;
62848;SDS011;48941;49.516;8.286;2022-08-01T01:32:27;2.58;;;1.90;;
62848;SDS011;48941;49.516;8.286;2022-08-01T01:35:00;2.45;;;1.70;;
62848;SDS011;48941;49.516;8.286;2022-08-01T01:37:31;3.80;;;2.17;;
62848;SDS011;48941;49.516;8.286;2022-08-01T01:40:00;2.47;;;1.98;;
62848;SDS011;48941;49.516;8.286;2022-08-01T01:42:29;1.67;;;1.58;;
62848;SDS011;48941;49.516;8.286;2022-08-01T01:45:00;2.50;;;1.88;;
62848;SDS011;48941;49.516;8.286;2022-08-01T01:47:34;3.65;;;1.80;;
62848;SDS011;48941;49.516;8.286;2022-08-01T01:50:05;2.03;;;1.77;;
62848;SDS011;48941;49.516;8.286;2022-08-01T01:52:38;4.65;;;1.90;;
62848;SDS011;48941;49.516;8.286;2022-08-01T01:55:09;2.70;;;1.80;;
62848;SDS011;48941;49.516;8.286;2022-08-01T01:57:40;4.18;;;1.80;;
62848;SDS011;48941;49.516;8.286;2022-08-01T02:00:11;4.75;;;1.83;;
62848;SDS011;48941;49.516;8.286;2022-08-01T02:02:40;2.05;;;1.70;;
62848;SDS011;48941;49.516;8.286;2022-08-01T02:05:11;3.55;;;1.73;;
62848;SDS011;48941;49.516;8.286;2022-08-01T02:07:40;2.33;;;1.70;;
62848;SDS011;48941;49.516;8.286;2022-08-01T02:10:09;3.33;;;1.80;;
62848;SDS011;48941;49.516;8.286;2022-08-01T02:12:40;3.90;;;1.83;;
62848;SDS011;48941;49.516;8.286;2022-08-01T02:17:41;2.13;;;1.80;;
62848;SDS011;48941;49.516;8.286;2022-08-01T02:20:12;5.47;;;1.60;;
62848;SDS011;48941;49.516;8.286;2022-08-01T02:22:42;3.17;;;2.00;;
62848;SDS011;48941;49.516;8.286;2022-08-01T02:25:16;1.77;;;1.67;;
62848;SDS011;48941;49.516;8.286;2022-08-01T02:27:50;2.47;;;1.80;;
62848;SDS011;48941;49.516;8.286;2022-08-01T02:30:22;2.28;;;1.73;;
62848;SDS011;48941;49.516;8.286;2022-08-01T02:32:53;1.90;;;1.50;;
62848;SDS011;48941;49.516;8.286;2022-08-01T02:35:28;3.28;;;1.60;;
62848;SDS011;48941;49.516;8.286;2022-08-01T02:37:59;2.50;;;1.70;;
62848;SDS011;48941;49.516;8.286;2022-08-01T02:40:31;1.60;;;1.50;;
62848;SDS011;48941;49.516;8.286;2022-08-01T02:43:02;5.15;;;1.75;;
62848;SDS011;48941;49.516;8.286;2022-08-01T02:45:33;2.13;;;1.60;;
62848;SDS011;48941;49.516;8.286;2022-08-01T02:48:05;2.60;;;1.70;;
62848;SDS011;48941;49.516;8.286;2022-08-01T02:50:37;1.67;;;1.58;;
62848;SDS011;48941;49.516;8.286;2022-08-01T02:53:06;3.22;;;2.00;;
62848;SDS011;48941;49.516;8.286;2022-08-01T02:55:36;2.03;;;1.70;;
62848;SDS011;48941;49.516;8.286;2022-08-01T02:58:06;2.42;;;1.70;;
62848;SDS011;48941;49.516;8.286;2022-08-01T03:00:39;1.65;;;1.55;;
62848;SDS011;48941;49.516;8.286;2022-08-01T03:03:08;4.38;;;1.80;;
62848;SDS011;48941;49.516;8.286;2022-08-01T03:05:37;4.15;;;2.35;;
62848;SDS011;48941;49.516;8.286;2022-08-01T03:08:07;4.18;;;1.63;;
62848;SDS011;48941;49.516;8.286;2022-08-01T03:10:40;2.30;;;1.80;;
62848;SDS011;48941;49.516;8.286;2022-08-01T03:13:11;5.95;;;1.67;;
62848;SDS011;48941;49.516;8.286;2022-08-01T03:15:41;2.55;;;1.83;;
62848;SDS011;48941;49.516;8.286;2022-08-01T03:18:11;1.98;;;1.77;;
62848;SDS011;48941;49.516;8.286;2022-08-01T03:20:40;4.80;;;1.80;;
62848;SDS011;48941;49.516;8.286;2022-08-01T03:23:12;3.75;;;1.80;;
62848;SDS011;48941;49.516;8.286;2022-08-01T03:25:43;4.20;;;1.77;;
62848;SDS011;48941;49.516;8.286;2022-08-01T03:28:13;1.80;;;1.70;;
62848;SDS011;48941;49.516;8.286;2022-08-01T03:30:44;2.38;;;1.77;;
62848;SDS011;48941;49.516;8.286;2022-08-01T03:33:14;2.92;;;2.00;;
62848;SDS011;48941;49.516;8.286;2022-08-01T03:35:42;6.13;;;2.20;;
62848;SDS011;48941;49.516;8.286;2022-08-01T03:38:16;4.22;;;2.03;;
62848;SDS011;48941;49.516;8.286;2022-08-01T03:40:47;3.20;;;2.30;;
62848;SDS011;48941;49.516;8.286;2022-08-01T03:45:51;4.03;;;2.15;;
62848;SDS011;48941;49.516;8.286;2022-08-01T03:48:22;3.75;;;2.17;;
62848;SDS011;48941;49.516;8.286;2022-08-01T03:51:00;10.38;;;2.10;;
62848;SDS011;48941;49.516;8.286;2022-08-01T03:53:30;3.10;;;2.22;;
62848;SDS011;48941;49.516;8.286;2022-08-01T03:56:06;2.13;;;1.70;;
62848;SDS011;48941;49.516;8.286;2022-08-01T03:58:35;6.88;;;2.17;;
62848;SDS011;48941;49.516;8.286;2022-08-01T04:01:07;11.40;;;2.67;;
62848;SDS011;48941;49.516;8.286;2022-08-01T04:03:41;23.33;;;2.67;;
62848;SDS011;48941;49.516;8.286;2022-08-01T04:06:12;8.50;;;2.63;;
62848;SDS011;48941;49.516;8.286;2022-08-01T04:08:40;7.88;;;2.60;;
62848;SDS011;48941;49.516;8.286;2022-08-01T04:11:11;10.40;;;2.60;;
62848;SDS011;48941;49.516;8.286;2022-08-01T04:13:39;14.10;;;2.60;;
62848;SDS011;48941;49.516;8.286;2022-08-01T04:16:11;18.73;;;2.58;;
62848;SDS011;48941;49.516;8.286;2022-08-01T04:18:39;7.63;;;2.38;;
62848;SDS011;48941;49.516;8.286;2022-08-01T04:21:07;9.20;;;2.95;;
62848;SDS011;48941;49.516;8.286;2022-08-01T04:23:35;7.97;;;2.67;;
62848;SDS011;48941;49.516;8.286;2022-08-01T04:26:03;9.38;;;3.17;;
62848;SDS011;48941;49.516;8.286;2022-08-01T04:28:33;8.68;;;2.60;;
62848;SDS011;48941;49.516;8.286;2022-08-01T04:31:04;5.10;;;2.67;;
62848;SDS011;48941;49.516;8.286;2022-08-01T04:33:37;4.85;;;2.97;;
62848;SDS011;48941;49.516;8.286;2022-08-01T04:36:08;3.80;;;2.35;;
62848;SDS011;48941;49.516;8.286;2022-08-01T04:38:37;8.88;;;2.63;;
62848;SDS011;48941;49.516;8.286;2022-08-01T04:41:07;7.10;;;2.67;;
62848;SDS011;48941;49.516;8.286;2022-08-01T04:43:38;8.02;;;3.03;;
62848;SDS011;48941;49.516;8.286;2022-08-01T04:46:10;6.05;;;4.53;;
62848;SDS011;48941;49.516;8.286;2022-08-01T04:48:40;17.75;;;8.35;;
62848;SDS011;48941;49.516;8.286;2022-08-01T04:51:12;22.08;;;10.63;;
62848;SDS011;48941;49.516;8.286;2022-08-01T04:53:41;15.82;;;8.50;;
62848;SDS011;48941;49.516;8.286;2022-08-01T04:56:10;21.67;;;5.55;;
62848;SDS011;48941;49.516;8.286;2022-08-01T04:58:39;8.77;;;4.70;;
62848;SDS011;48941;49.516;8.286;2022-08-01T05:01:08;9.55;;;4.60;;
62848;SDS011;48941;49.516;8.286;2022-08-01T05:03:36;10.57;;;4.70;;
62848;SDS011;48941;49.516;8.286;2022-08-01T05:06:06;9.05;;;5.07;;
62848;SDS011;48941;49.516;8.286;2022-08-01T05:08:33;17.10;;;4.60;;
62848;SDS011;48941;49.516;8.286;2022-08-01T05:11:02;10.63;;;4.90;;
62848;SDS011;48941;49.516;8.286;2022-08-01T05:13:30;6.40;;;4.25;;
62848;SDS011;48941;49.516;8.286;2022-08-01T05:15:58;5.47;;;3.90;;
62848;SDS011;48941;49.516;8.286;2022-08-01T05:18:29;4.38;;;3.42;;
62848;SDS011;48941;49.516;8.286;2022-08-01T05:20:57;3.15;;;2.63;;
62848;SDS011;48941;49.516;8.286;2022-08-01T05:23:27;2.95;;;2.00;;
62848;SDS011;48941;49.516;8.286;2022-08-01T05:26:08;8.18;;;1.92;;
62848;SDS011;48941;49.516;8.286;2022-08-01T05:28:40;3.10;;;1.67;;
62848;SDS011;48941;49.516;8.286;2022-08-01T05:31:07;3.92;;;1.70;;
62848;SDS011;48941;49.516;8.286;2022-08-01T05:33:35;2.40;;;1.40;;
62848;SDS011;48941;49.516;8.286;2022-08-01T05:36:03;3.88;;;1.60;;
62848;SDS011;48941;49.516;8.286;2022-08-01T05:38:33;3.50;;;1.35;;
62848;SDS011;48941;49.516;8.286;2022-08-01T05:41:01;1.63;;;1.52;;
62848;SDS011;48941;49.516;8.286;2022-08-01T05:43:29;2.35;;;1.50;;
62848;SDS011;48941;49.516;8.286;2022-08-01T05:45:56;1.77;;;1.30;;
62848;SDS011;48941;49.516;8.286;2022-08-01T05:48:25;3.53;;;1.70;;
62848;SDS011;48941;49.516;8.286;2022-08-01T05:50:52;1.65;;;1.50;;
62848;SDS011;48941;49.516;8.286;2022-08-01T05:53:24;4.40;;;1.45;;
62848;SDS011;48941;49.516;8.286;2022-08-01T05:55:53;2.83;;;1.50;;
62848;SDS011;48941;49.516;8.286;2022-08-01T05:58:21;1.63;;;1.30;;
62848;SDS011;48941;49.516;8.286;2022-08-01T06:00:49;2.88;;;1.45;;
62848;SDS011;48941;49.516;8.286;2022-08-01T06:03:17;1.98;;;1.50;;
62848;SDS011;48941;49.516;8.286;2022-08-01T06:05:45;2.92;;;1.60;;
62848;SDS011;48941;49.516;8.286;2022-08-01T06:08:13;6.85;;;1.50;;
62848;SDS011;48941;49.516;8.286;2022-08-01T06:10:41;3.08;;;1.50;;
62848;SDS011;48941;49.516;8.286;2022-08-01T06:13:10;4.15;;;1.50;;
62848;SDS011;48941;49.516;8.286;2022-08-01T06:15:38;1.75;;;1.30;;
62848;SDS011;48941;49.516;8.286;2022-08-01T06:18:06;2.78;;;1.55;;
62848;SDS011;48941;49.516;8.286;2022-08-01T06:20:34;2.03;;;1.40;;
62848;SDS011;48941;49.516;8.286;2022-08-01T06:23:02;5.63;;;1.90;;
62848;SDS011;48941;49.516;8.286;2022-08-01T06:25:51;2.78;;;1.65;;
62848;SDS011;48941;49.516;8.286;2022-08-01T06:28:21;6.40;;;1.83;;
62848;SDS011;48941;49.516;8.286;2022-08-01T06:30:49;4.85;;;1.70;;
62848;SDS011;48941;49.516;8.286;2022-08-01T06:33:17;4.82;;;1.60;;
62848;SDS011;48941;49.516;8.286;2022-08-01T06:35:44;1.90;;;1.30;;
62848;SDS011;48941;49.516;8.286;2022-08-01T06:38:12;2.50;;;1.48;;
62848;SDS011;48941;49.516;8.286;2022-08-01T06:40:40;2.72;;;1.50;;
62848;SDS011;48941;49.516;8.286;2022-08-01T06:43:08;4.43;;;1.75;;
62848;SDS011;48941;49.516;8.286;2022-08-01T06:45:39;3.80;;;1.50;;
62848;SDS011;48941;49.516;8.286;2022-08-01T06:48:07;2.38;;;1.30;;
62848;SDS011;48941;49.516;8.286;2022-08-01T06:50:35;4.88;;;1.55;;
62848;SDS011;48941;49.516;8.286;2022-08-01T06:53:03;1.65;;;1.50;;
62848;SDS011;48941;49.516;8.286;2022-08-01T06:55:31;8.85;;;1.75;;
62848;SDS011;48941;49.516;8.286;2022-08-01T06:57:59;1.75;;;1.40;;
62848;SDS011;48941;49.516;8.286;2022-08-01T07:00:27;5.47;;;1.40;;
62848;SDS011;48941;49.516;8.286;2022-08-01T07:02:57;2.17;;;1.20;;
62848;SDS011;48941;49.516;8.286;2022-08-01T07:05:26;7.97;;;1.92;;
62848;SDS011;48941;49.516;8.286;2022-08-01T07:07:54;1.63;;;1.25;;
62848;SDS011;48941;49.516;8.286;2022-08-01T07:10:21;5.55;;;1.50;;
62848;SDS011;48941;49.516;8.286;2022-08-01T07:12:50;4.53;;;1.38;;
62848;SDS011;48941;49.516;8.286;2022-08-01T07:15:17;3.78;;;1.70;;
62848;SDS011;48941;49.516;8.286;2022-08-01T07:17:48;1.98;;;1.33;;
62848;SDS011;48941;49.516;8.286;2022-08-01T07:20:17;2.45;;;1.60;;
62848;SDS011;48941;49.516;8.286;2022-08-01T07:22:45;3.80;;;1.70;;
62848;SDS011;48941;49.516;8.286;2022-08-01T07:25:16;4.53;;;1.30;;
62848;SDS011;48941;49.516;8.286;2022-08-01T07:27:43;3.30;;;1.60;;
62848;SDS011;48941;49.516;8.286;2022-08-01T07:30:12;1.20;;;1.10;;
62848;SDS011;48941;49.516;8.286;2022-08-01T07:32:40;3.55;;;1.67;;
62848;SDS011;48941;49.516;8.286;2022-08-01T07:35:08;1.52;;;1.40;;
62848;SDS011;48941;49.516;8.286;2022-08-01T07:37:37;7.70;;;1.50;;
62848;SDS011;48941;49.516;8.286;2022-08-01T07:40:14;2.47;;;1.30;;
62848;SDS011;48941;49.516;8.286;2022-08-01T07:42:42;4.10;;;1.30;;
62848;SDS011;48941;49.516;8.286;2022-08-01T07:45:11;2.78;;;1.55;;
62848;SDS011;48941;49.516;8.286;2022-08-01T07:47:39;4.70;;;1.27;;
62848;SDS011;48941;49.516;8.286;2022-08-01T07:50:07;2.90;;;1.30;;
62848;SDS011;48941;49.516;8.286;2022-08-01T07:52:35;2.28;;;1.40;;
62848;SDS011;48941;49.516;8.286;2022-08-01T07:55:05;1.65;;;1.50;;
62848;SDS011;48941;49.516;8.286;2022-08-01T07:57:34;3.50;;;1.30;;
62848;SDS011;48941;49.516;8.286;2022-08-01T08:00:02;2.25;;;1.30;;
62848;SDS011;48941;49.516;8.286;2022-08-01T08:02:31;3.17;;;1.63;;
62848;SDS011;48941;49.516;8.286;2022-08-01T08:04:59;1.83;;;1.35;;
62848;SDS011;48941;49.516;8.286;2022-08-01T08:07:27;3.85;;;1.10;;
62848;SDS011;48941;49.516;8.286;2022-08-01T08:09:55;3.83;;;1.30;;
62848;SDS011;48941;49.516;8.286;2022-08-01T08:12:24;3.30;;;1.30;;
62848;SDS011;48941;49.516;8.286;2022-08-01T08:14:55;1.20;;;1.10;;
62848;SDS011;48941;49.516;8.286;2022-08-01T08:17:22;4.38;;;1.20;;
62848;SDS011;48941;49.516;8.286;2022-08-01T08:19:52;3.20;;;1.60;;
62848;SDS011;48941;49.516;8.286;2022-08-01T08:22:20;3.08;;;1.35;;
62848;SDS011;48941;49.516;8.286;2022-08-01T08:24:48;3.50;;;1.35;;
62848;SDS011;48941;49.516;8.286;2022-08-01T08:27:15;3.35;;;1.60;;
62848;SDS011;48941;49.516;8.286;2022-08-01T08:29:45;1.77;;;1.50;;
62848;SDS011;48941;49.516;8.286;2022-08-01T08:32:13;3.00;;;1.60;;
62848;SDS011;48941;49.516;8.286;2022-08-01T08:34:41;2.75;;;1.40;;
62848;SDS011;48941;49.516;8.286;2022-08-01T08:37:10;2.90;;;1.73;;
62848;SDS011;48941;49.516;8.286;2022-08-01T08:39:40;1.98;;;1.65;;
62848;SDS011;48941;49.516;8.286;2022-08-01T08:42:09;1.85;;;1.50;;
62848;SDS011;48941;49.516;8.286;2022-08-01T08:44:37;2.05;;;1.70;;
62848;SDS011;48941;49.516;8.286;2022-08-01T08:47:11;9.90;;;1.70;;
62848;SDS011;48941;49.516;8.286;2022-08-01T08:49:46;1.40;;;1.30;;
62848;SDS011;48941;49.516;8.286;2022-08-01T08:52:15;3.25;;;1.42;;
62848;SDS011;48941;49.516;8.286;2022-08-01T08:54:44;3.88;;;1.50;;
62848;SDS011;48941;49.516;8.286;2022-08-01T08:57:14;3.78;;;2.10;;
62848;SDS011;48941;49.516;8.286;2022-08-01T08:59:42;5.65;;;1.70;;
62848;SDS011;48941;49.516;8.286;2022-08-01T09:02:13;4.97;;;1.67;;
62848;SDS011;48941;49.516;8.286;2022-08-01T09:04:40;1.88;;;1.60;;
62848;SDS011;48941;49.516;8.286;2022-08-01T09:07:08;3.72;;;2.13;;
62848;SDS011;48941;49.516;8.286;2022-08-01T09:09:38;4.35;;;1.60;;
62848;SDS011;48941;49.516;8.286;2022-08-01T09:12:07;4.05;;;1.73;;
62848;SDS011;48941;49.516;8.286;2022-08-01T09:14:43;3.90;;;2.10;;
62848;SDS011;48941;49.516;8.286;2022-08-01T09:17:14;2.78;;;1.67;;
62848;SDS011;48941;49.516;8.286;2022-08-01T09:19:43;4.25;;;1.67;;
62848;SDS011;48941;49.516;8.286;2022-08-01T09:22:15;1.77;;;1.50;;
62848;SDS011;48941;49.516;8.286;2022-08-01T09:24:59;1.60;;;1.50;;
62848;SDS011;48941;49.516;8.286;2022-08-01T09:27:29;3.30;;;1.60;;
62848;SDS011;48941;49.516;8.286;2022-08-01T09:30:07;2.40;;;1.42;;
62848;SDS011;48941;49.516;8.286;2022-08-01T09:32:38;1.85;;;1.65;;
62848;SDS011;48941;49.516;8.286;2022-08-01T09:35:24;3.03;;;1.55;;
62848;SDS011;48941;49.516;8.286;2022-08-01T09:38:04;3.70;;;1.70;;
62848;SDS011;48941;49.516;8.286;2022-08-01T09:40:52;1.98;;;1.75;;
62848;SDS011;48941;49.516;8.286;2022-08-01T09:43:24;7.28;;;1.70;;
62848;SDS011;48941;49.516;8.286;2022-08-01T09:45:53;2.25;;;1.40;;
62848;SDS011;48941;49.516;8.286;2022-08-01T09:48:25;7.35;;;1.75;;
62848;SDS011;48941;49.516;8.286;2022-08-01T09:50:55;3.60;;;1.70;;
62848;SDS011;48941;49.516;8.286;2022-08-01T09:53:42;3.72;;;1.83;;
62848;SDS011;48941;49.516;8.286;2022-08-01T09:56:18;3.13;;;1.80;;
62848;SDS011;48941;49.516;8.286;2022-08-01T09:58:49;5.22;;;1.60;;
62848;SDS011;48941;49.516;8.286;2022-08-01T10:01:25;1.65;;;1.55;;
62848;SDS011;48941;49.516;8.286;2022-08-01T10:04:06;3.70;;;1.60;;
62848;SDS011;48941;49.516;8.286;2022-08-01T10:06:36;3.75;;;1.60;;
62848;SDS011;48941;49.516;8.286;2022-08-01T10:09:06;2.72;;;1.60;;
62848;SDS011;48941;49.516;8.286;2022-08-01T10:11:34;1.83;;;1.60;;
62848;SDS011;48941;49.516;8.286;2022-08-01T10:14:05;7.75;;;2.00;;
62848;SDS011;48941;49.516;8.286;2022-08-01T10:16:35;3.95;;;1.73;;
62848;SDS011;48941;49.516;8.286;2022-08-01T10:19:06;3.05;;;1.77;;
62848;SDS011;48941;49.516;8.286;2022-08-01T10:21:40;2.15;;;1.90;;
62848;SDS011;48941;49.516;8.286;2022-08-01T10:24:25;2.25;;;1.60;;
62848;SDS011;48941;49.516;8.286;2022-08-01T10:26:56;6.53;;;2.00;;
62848;SDS011;48941;49.516;8.286;2022-08-01T10:29:35;3.08;;;2.05;;
62848;SDS011;48941;49.516;8.286;2022-08-01T10:32:25;2.05;;;1.70;;
62848;SDS011;48941;49.516;8.286;2022-08-01T10:34:55;1.77;;;1.67;;
62848;SDS011;48941;49.516;8.286;2022-08-01T10:37:24;3.95;;;1.80;;
62848;SDS011;48941;49.516;8.286;2022-08-01T10:39:52;3.60;;;1.70;;
62848;SDS011;48941;49.516;8.286;2022-08-01T10:42:41;1.70;;;1.60;;
62848;SDS011;48941;49.516;8.286;2022-08-01T10:45:11;2.15;;;1.70;;
62848;SDS011;48941;49.516;8.286;2022-08-01T10:47:42;3.65;;;1.95;;
62848;SDS011;48941;49.516;8.286;2022-08-01T10:50:19;5.72;;;1.77;;
62848;SDS011;48941;49.516;8.286;2022-08-01T10:53:08;5.93;;;1.80;;
62848;SDS011;48941;49.516;8.286;2022-08-01T10:55:49;1.75;;;1.65;;
62848;SDS011;48941;49.516;8.286;2022-08-01T10:58:23;5.40;;;1.77;;
62848;SDS011;48941;49.516;8.286;2022-08-01T11:03:45;5.43;;;1.83;;
62848;SDS011;48941;49.516;8.286;2022-08-01T11:06:35;2.50;;;1.60;;
62848;SDS011;48941;49.516;8.286;2022-08-01T11:09:16;6.22;;;2.00;;
62848;SDS011;48941;49.516;8.286;2022-08-01T11:12:03;5.70;;;1.70;;
62848;SDS011;48941;49.516;8.286;2022-08-01T11:15:16;2.28;;;1.70;;
62848;SDS011;48941;49.516;8.286;2022-08-01T11:17:56;2.75;;;1.60;;
62848;SDS011;48941;49.516;8.286;2022-08-01T11:20:26;3.67;;;1.85;;
62848;SDS011;48941;49.516;8.286;2022-08-01T11:28:43;2.13;;;1.77;;
62848;SDS011;48941;49.516;8.286;2022-08-01T11:31:33;3.90;;;1.50;;
62848;SDS011;48941;49.516;8.286;2022-08-01T11:34:03;3.97;;;1.63;;
62848;SDS011;48941;49.516;8.286;2022-08-01T11:36:31;3.67;;;1.70;;
62848;SDS011;48941;49.516;8.286;2022-08-01T11:39:19;2.15;;;1.52;;
62848;SDS011;48941;49.516;8.286;2022-08-01T11:41:48;3.67;;;1.75;;
62848;SDS011;48941;49.516;8.286;2022-08-01T11:44:17;1.70;;;1.60;;
62848;SDS011;48941;49.516;8.286;2022-08-01T11:46:51;2.40;;;1.55;;
62848;SDS011;48941;49.516;8.286;2022-08-01T11:49:26;1.77;;;1.67;;
62848;SDS011;48941;49.516;8.286;2022-08-01T11:52:03;3.88;;;1.60;;
62848;SDS011;48941;49.516;8.286;2022-08-01T11:54:33;2.55;;;1.73;;
62848;SDS011;48941;49.516;8.286;2022-08-01T11:57:04;3.60;;;1.40;;
62848;SDS011;48941;49.516;8.286;2022-08-01T11:59:39;2.00;;;1.60;;
62848;SDS011;48941;49.516;8.286;2022-08-01T12:02:29;1.75;;;1.60;;
62848;SDS011;48941;49.516;8.286;2022-08-01T12:05:00;2.15;;;1.52;;
62848;SDS011;48941;49.516;8.286;2022-08-01T12:07:31;2.45;;;1.70;;
62848;SDS011;48941;49.516;8.286;2022-08-01T12:10:00;1.65;;;1.55;;
62848;SDS011;48941;49.516;8.286;2022-08-01T12:12:31;2.60;;;1.50;;
62848;SDS011;48941;49.516;8.286;2022-08-01T12:15:00;1.58;;;1.48;;
62848;SDS011;48941;49.516;8.286;2022-08-01T12:17:32;3.33;;;1.75;;
62848;SDS011;48941;49.516;8.286;2022-08-01T12:20:01;1.65;;;1.20;;
62848;SDS011;48941;49.516;8.286;2022-08-01T12:22:30;2.72;;;1.42;;
62848;SDS011;48941;49.516;8.286;2022-08-01T12:25:04;2.22;;;1.23;;
62848;SDS011;48941;49.516;8.286;2022-08-01T12:27:34;5.25;;;1.60;;
62848;SDS011;48941;49.516;8.286;2022-08-01T12:30:06;5.18;;;1.73;;
62848;SDS011;48941;49.516;8.286;2022-08-01T12:32:35;5.78;;;1.52;;
62848;SDS011;48941;49.516;8.286;2022-08-01T12:35:06;3.38;;;1.33;;
62848;SDS011;48941;49.516;8.286;2022-08-01T12:37:38;1.67;;;1.40;;
62848;SDS011;48941;49.516;8.286;2022-08-01T12:40:10;3.97;;;1.33;;
62848;SDS011;48941;49.516;8.286;2022-08-01T12:42:42;2.63;;;1.40;;
62848;SDS011;48941;49.516;8.286;2022-08-01T12:45:12;3.28;;;1.40;;
62848;SDS011;48941;49.516;8.286;2022-08-01T12:47:42;2.72;;;1.33;;
62848;SDS011;48941;49.516;8.286;2022-08-01T12:50:11;1.40;;;1.30;;
62848;SDS011;48941;49.516;8.286;2022-08-01T12:52:40;1.30;;;1.20;;
62848;SDS011;48941;49.516;8.286;2022-08-01T12:55:09;4.10;;;1.40;;
62848;SDS011;48941;49.516;8.286;2022-08-01T12:57:39;8.15;;;1.42;;
62848;SDS011;48941;49.516;8.286;2022-08-01T13:00:16;1.33;;;1.23;;
62848;SDS011;48941;49.516;8.286;2022-08-01T13:02:46;2.03;;;1.40;;
62848;SDS011;48941;49.516;8.286;2022-08-01T13:05:15;2.45;;;1.60;;
62848;SDS011;48941;49.516;8.286;2022-08-01T13:07:44;1.80;;;1.25;;
62848;SDS011;48941;49.516;8.286;2022-08-01T13:10:15;2.17;;;1.52;;
62848;SDS011;48941;49.516;8.286;2022-08-01T13:12:52;1.65;;;1.30;;
62848;SDS011;48941;49.516;8.286;2022-08-01T13:15:23;2.65;;;1.33;;
62848;SDS011;48941;49.516;8.286;2022-08-01T13:17:54;5.82;;;1.48;;
62848;SDS011;48941;49.516;8.286;2022-08-01T13:20:22;1.90;;;1.40;;
62848;SDS011;48941;49.516;8.286;2022-08-01T13:23:09;2.97;;;1.30;;
62848;SDS011;48941;49.516;8.286;2022-08-01T13:25:50;1.52;;;1.30;;
62848;SDS011;48941;49.516;8.286;2022-08-01T13:28:20;1.40;;;1.30;;
62848;SDS011;48941;49.516;8.286;2022-08-01T13:30:54;1.80;;;1.50;;
62848;SDS011;48941;49.516;8.286;2022-08-01T13:33:24;2.25;;;1.30;;
62848;SDS011;48941;49.516;8.286;2022-08-01T13:35:55;1.25;;;1.23;;
62848;SDS011;48941;49.516;8.286;2022-08-01T13:38:23;1.50;;;1.30;;
62848;SDS011;48941;49.516;8.286;2022-08-01T13:41:05;3.55;;;1.58;;
62848;SDS011;48941;49.516;8.286;2022-08-01T13:43:33;8.13;;;1.50;;
62848;SDS011;48941;49.516;8.286;2022-08-01T13:46:23;3.00;;;1.50;;
62848;SDS011;48941;49.516;8.286;2022-08-01T13:48:54;2.90;;;1.40;;
62848;SDS011;48941;49.516;8.286;2022-08-01T13:51:22;1.52;;;1.38;;
62848;SDS011;48941;49.516;8.286;2022-08-01T13:53:50;3.72;;;1.60;;
62848;SDS011;48941;49.516;8.286;2022-08-01T13:56:17;5.63;;;1.60;;
62848;SDS011;48941;49.516;8.286;2022-08-01T13:58:46;3.63;;;1.40;;
62848;SDS011;48941;49.516;8.286;2022-08-01T14:01:14;3.97;;;1.58;;
62848;SDS011;48941;49.516;8.286;2022-08-01T14:03:43;3.28;;;1.48;;
62848;SDS011;48941;49.516;8.286;2022-08-01T14:06:12;2.00;;;1.50;;
62848;SDS011;48941;49.516;8.286;2022-08-01T14:08:42;1.75;;;1.25;;
62848;SDS011;48941;49.516;8.286;2022-08-01T14:11:12;2.15;;;1.58;;
62848;SDS011;48941;49.516;8.286;2022-08-01T14:13:40;5.82;;;1.40;;
62848;SDS011;48941;49.516;8.286;2022-08-01T14:16:11;2.65;;;1.30;;
62848;SDS011;48941;49.516;8.286;2022-08-01T14:18:40;7.97;;;1.60;;
62848;SDS011;48941;49.516;8.286;2022-08-01T14:21:10;5.78;;;1.50;;
62848;SDS011;48941;49.516;8.286;2022-08-01T14:23:39;1.20;;;1.17;;
62848;SDS011;48941;49.516;8.286;2022-08-01T14:26:06;1.92;;;1.30;;
62848;SDS011;48941;49.516;8.286;2022-08-01T14:28:37;2.20;;;1.20;;
62848;SDS011;48941;49.516;8.286;2022-08-01T14:31:06;1.98;;;1.30;;
62848;SDS011;48941;49.516;8.286;2022-08-01T14:33:34;2.53;;;1.30;;
62848;SDS011;48941;49.516;8.286;2022-08-01T14:36:01;3.17;;;1.42;;
62848;SDS011;48941;49.516;8.286;2022-08-01T14:38:51;2.45;;;1.20;;
62848;SDS011;48941;49.516;8.286;2022-08-01T14:41:25;1.52;;;1.40;;
62848;SDS011;48941;49.516;8.286;2022-08-01T14:43:53;3.58;;;1.30;;
62848;SDS011;48941;49.516;8.286;2022-08-01T14:46:21;2.10;;;1.30;;
62848;SDS011;48941;49.516;8.286;2022-08-01T14:48:48;1.42;;;1.30;;
62848;SDS011;48941;49.516;8.286;2022-08-01T14:51:16;1.42;;;1.30;;
62848;SDS011;48941;49.516;8.286;2022-08-01T14:53:44;1.80;;;1.50;;
62848;SDS011;48941;49.516;8.286;2022-08-01T14:56:17;1.60;;;1.50;;
62848;SDS011;48941;49.516;8.286;2022-08-01T14:58:45;1.55;;;1.40;;
62848;SDS011;48941;49.516;8.286;2022-08-01T15:01:13;1.40;;;1.30;;
62848;SDS011;48941;49.516;8.286;2022-08-01T15:03:42;1.30;;;1.20;;
62848;SDS011;48941;49.516;8.286;2022-08-01T15:06:10;1.73;;;1.40;;
62848;SDS011;48941;49.516;8.286;2022-08-01T15:08:38;1.70;;;1.58;;
62848;SDS011;48941;49.516;8.286;2022-08-01T15:11:06;1.75;;;1.27;;
62848;SDS011;48941;49.516;8.286;2022-08-01T15:13:36;3.08;;;1.52;;
62848;SDS011;48941;49.516;8.286;2022-08-01T15:16:10;3.10;;;1.33;;
62848;SDS011;48941;49.516;8.286;2022-08-01T15:18:38;5.10;;;1.50;;
62848;SDS011;48941;49.516;8.286;2022-08-01T15:21:08;5.53;;;1.38;;
62848;SDS011;48941;49.516;8.286;2022-08-01T15:23:57;11.48;;;1.50;;
62848;SDS011;48941;49.516;8.286;2022-08-01T15:26:25;8.45;;;1.33;;